createdAt,value
2017-02-05T00:00:02.839Z,53
2017-02-05T00:10:06.366Z,53
2017-02-05T00:20:06.358Z,53
2017-02-05T00:30:06.361Z,53
2017-02-05T00:40:06.357Z,53
2017-02-05T00:50:06.367Z,53
2017-02-05T01:00:06.365Z,51.9
2017-02-05T01:10:06.394Z,53
2017-02-05T01:20:01.792Z,53
2017-02-05T01:30:06.362Z,53
2017-02-05T01:40:06.362Z,52.5
2017-02-05T01:50:06.391Z,53
2017-02-05T02:00:03.707Z,53
2017-02-05T02:10:06.382Z,53
2017-02-05T02:20:06.371Z,52.5
2017-02-05T02:30:06.360Z,52.5
2017-02-05T02:40:02.749Z,53
2017-02-05T02:50:06.354Z,52.5
2017-02-05T03:00:06.355Z,53
2017-02-05T03:10:06.356Z,53
2017-02-05T03:20:06.396Z,53
2017-02-05T03:30:06.365Z,53
2017-02-05T03:40:06.357Z,51.9
2017-02-05T03:50:06.357Z,51.9
2017-02-05T04:00:06.365Z,52.5
2017-02-05T04:10:06.357Z,53
2017-02-05T04:20:06.360Z,53
2017-02-05T04:30:06.412Z,53
2017-02-05T04:40:06.388Z,52.5
2017-02-05T04:50:06.386Z,53
2017-02-05T05:00:06.359Z,52.5
2017-02-05T05:10:06.358Z,52.5
2017-02-05T05:20:06.355Z,52.5
2017-02-05T05:30:06.358Z,51.9
2017-02-05T05:40:06.361Z,52.5
2017-02-05T05:50:06.358Z,51.9
2017-02-05T06:00:06.362Z,51.9
2017-02-05T06:10:06.357Z,53
2017-02-05T06:20:06.397Z,52.5
2017-02-05T06:30:06.357Z,53
2017-02-05T06:40:06.357Z,53
2017-02-05T06:50:06.388Z,51.9
2017-02-05T07:00:06.360Z,52.5
2017-02-05T07:10:06.359Z,51.9
2017-02-05T07:20:06.391Z,52.5
2017-02-05T07:30:06.361Z,51.9
2017-02-05T07:40:06.364Z,52.5
2017-02-05T07:50:06.363Z,51.9
2017-02-05T08:00:06.358Z,52.5
2017-02-05T08:10:06.392Z,51.9
2017-02-05T08:20:06.392Z,51.9
2017-02-05T08:30:06.361Z,53
2017-02-05T08:40:06.359Z,51.9
2017-02-05T08:50:06.366Z,51.9
2017-02-05T09:00:06.361Z,51.9
2017-02-05T09:10:06.397Z,51.9
2017-02-05T09:20:06.364Z,51.9
2017-02-05T09:30:06.367Z,52.5
2017-02-05T09:40:06.359Z,51.9
2017-02-05T09:50:06.359Z,51.9
2017-02-05T10:00:06.454Z,52.5
2017-02-05T10:10:06.388Z,52.5
2017-02-05T10:20:06.356Z,53
2017-02-05T10:30:06.358Z,53
2017-02-05T10:40:06.354Z,52.5
2017-02-05T10:50:06.390Z,52.5
2017-02-05T11:00:06.582Z,53
2017-02-05T11:10:06.356Z,53
2017-02-05T11:20:06.390Z,53
2017-02-05T11:30:06.358Z,53
2017-02-05T11:40:06.354Z,53
2017-02-05T11:50:06.404Z,53
2017-02-05T12:00:06.402Z,53
2017-02-05T12:10:06.360Z,53
2017-02-05T12:20:06.361Z,53
2017-02-05T12:30:06.362Z,53
2017-02-05T12:40:06.392Z,53
2017-02-05T12:50:03.461Z,53.5
2017-02-05T13:00:06.361Z,53
2017-02-05T13:10:06.414Z,53
2017-02-05T13:20:06.431Z,53
2017-02-05T13:30:02.775Z,53
2017-02-05T13:40:06.391Z,53.5
2017-02-05T13:50:06.362Z,53.5
2017-02-05T14:00:06.361Z,53
2017-02-05T14:10:04.112Z,53
2017-02-05T14:20:06.398Z,53
2017-02-05T14:30:06.389Z,53
2017-02-05T14:40:06.386Z,53
2017-02-05T14:50:03.138Z,53
2017-02-05T15:00:06.422Z,53
2017-02-05T15:10:06.359Z,53
2017-02-05T15:20:06.395Z,53
2017-02-05T15:30:06.397Z,53
2017-02-05T15:40:06.376Z,53
2017-02-05T15:50:06.451Z,53
2017-02-05T16:00:06.392Z,53
2017-02-05T16:10:06.393Z,53
2017-02-05T16:20:06.353Z,53
2017-02-05T16:30:06.390Z,53
2017-02-05T16:40:06.390Z,53
2017-02-05T16:50:06.358Z,53
2017-02-05T17:00:06.612Z,53
2017-02-05T17:10:06.396Z,53
2017-02-05T17:20:06.429Z,52.5
2017-02-05T17:30:06.587Z,53
2017-02-05T17:40:06.391Z,51.9
2017-02-05T17:50:06.580Z,51.9
2017-02-05T18:00:06.359Z,51.9
2017-02-05T18:10:06.591Z,51.9
2017-02-05T18:20:06.395Z,52.5
2017-02-05T18:30:06.395Z,51.9
2017-02-05T18:40:06.382Z,51.9
2017-02-05T18:50:06.586Z,51.9
2017-02-05T19:00:06.583Z,51.9
2017-02-05T19:10:06.605Z,51.9
2017-02-05T19:20:06.631Z,51.4
2017-02-05T19:30:19.884Z,51.4
2017-02-05T19:40:06.597Z,51.4
2017-02-05T19:50:06.584Z,51.9
2017-02-05T20:00:11.857Z,50.8
2017-02-05T20:10:06.584Z,51.4
2017-02-05T20:20:06.406Z,51.4
2017-02-05T20:30:06.587Z,50.8
2017-02-05T20:40:06.594Z,51.4
2017-02-05T20:50:06.361Z,50.8
2017-02-05T21:00:06.583Z,50.8
2017-02-05T21:10:06.405Z,50.8
2017-02-05T21:20:06.393Z,50.8
2017-02-05T21:30:06.362Z,49.8
2017-02-05T21:40:06.361Z,50.8
2017-02-05T21:50:06.367Z,50.8
2017-02-05T22:00:06.372Z,50.8
2017-02-05T22:10:06.400Z,51.4
2017-02-05T22:20:06.358Z,50.8
2017-02-05T22:30:06.390Z,50.8
2017-02-05T22:40:06.388Z,49.8
2017-02-05T22:50:06.393Z,50.8
2017-02-05T23:00:09.262Z,50.8
2017-02-05T23:10:06.359Z,50.8
2017-02-05T23:20:06.358Z,50.8
2017-02-05T23:30:06.357Z,50.8
2017-02-05T23:40:04.156Z,50.8
2017-02-05T23:50:06.387Z,50.3
